sensor_id;sensor_type;location;lat;lon;timestamp;P1;durP1;ratioP1;P2;durP2;ratioP2
4986;SDS011;12674;51.500;7.552;2022-10-17T00:01:50;7.20;;;4.27;;
4986;SDS011;12674;51.500;7.552;2022-10-17T00:03:53;8.20;;;4.73;;
4986;SDS011;12674;51.500;7.552;2022-10-17T00:05:57;8.00;;;4.73;;
4986;SDS011;12674;51.500;7.552;2022-10-17T00:08:00;7.70;;;4.50;;
4986;SDS011;12674;51.500;7.552;2022-10-17T00:10:03;5.55;;;4.03;;
4986;SDS011;12674;51.500;7.552;2022-10-17T00:12:09;8.70;;;3.90;;
4986;SDS011;12674;51.500;7.552;2022-10-17T00:14:12;4.95;;;3.90;;
4986;SDS011;12674;51.500;7.552;2022-10-17T00:16:17;6.38;;;4.43;;
4986;SDS011;12674;51.500;7.552;2022-10-17T00:18:24;7.88;;;4.85;;
4986;SDS011;12674;51.500;7.552;2022-10-17T00:20:27;9.52;;;4.70;;
4986;SDS011;12674;51.500;7.552;2022-10-17T00:22:34;7.17;;;4.80;;
4986;SDS011;12674;51.500;7.552;2022-10-17T00:24:37;7.57;;;5.05;;
4986;SDS011;12674;51.500;7.552;2022-10-17T00:26:40;5.22;;;4.75;;
4986;SDS011;12674;51.500;7.552;2022-10-17T00:28:44;9.20;;;4.63;;
4986;SDS011;12674;51.500;7.552;2022-10-17T00:30:54;7.70;;;5.25;;
4986;SDS011;12674;51.500;7.552;2022-10-17T00:32:57;6.45;;;4.63;;
4986;SDS011;12674;51.500;7.552;2022-10-17T00:35:00;8.23;;;4.87;;
4986;SDS011;12674;51.500;7.552;2022-10-17T00:37:03;8.75;;;4.22;;
4986;SDS011;12674;51.500;7.552;2022-10-17T00:39:08;17.95;;;4.80;;
4986;SDS011;12674;51.500;7.552;2022-10-17T00:41:13;6.80;;;4.63;;
4986;SDS011;12674;51.500;7.552;2022-10-17T00:43:18;7.68;;;4.55;;
4986;SDS011;12674;51.500;7.552;2022-10-17T00:45:22;9.35;;;4.60;;
4986;SDS011;12674;51.500;7.552;2022-10-17T00:47:25;6.97;;;4.40;;
4986;SDS011;12674;51.500;7.552;2022-10-17T00:49:31;8.27;;;3.50;;
4986;SDS011;12674;51.500;7.552;2022-10-17T00:51:36;10.38;;;3.95;;
4986;SDS011;12674;51.500;7.552;2022-10-17T00:53:43;7.60;;;4.13;;
4986;SDS011;12674;51.500;7.552;2022-10-17T00:55:48;8.23;;;3.90;;
4986;SDS011;12674;51.500;7.552;2022-10-17T00:57:53;8.18;;;4.03;;
4986;SDS011;12674;51.500;7.552;2022-10-17T00:59:57;6.15;;;3.53;;
4986;SDS011;12674;51.500;7.552;2022-10-17T01:02:04;7.93;;;4.07;;
4986;SDS011;12674;51.500;7.552;2022-10-17T01:04:07;5.95;;;3.55;;
4986;SDS011;12674;51.500;7.552;2022-10-17T01:06:13;4.65;;;3.55;;
4986;SDS011;12674;51.500;7.552;2022-10-17T01:08:16;7.55;;;4.30;;
4986;SDS011;12674;51.500;7.552;2022-10-17T01:10:19;16.40;;;3.47;;
4986;SDS011;12674;51.500;7.552;2022-10-17T01:12:25;6.75;;;3.45;;
4986;SDS011;12674;51.500;7.552;2022-10-17T01:14:36;5.18;;;3.20;;
4986;SDS011;12674;51.500;7.552;2022-10-17T01:16:43;4.90;;;3.15;;
4986;SDS011;12674;51.500;7.552;2022-10-17T01:18:54;12.93;;;3.20;;
4986;SDS011;12674;51.500;7.552;2022-10-17T01:21:10;5.43;;;3.40;;
4986;SDS011;12674;51.500;7.552;2022-10-17T01:23:26;7.75;;;3.58;;
4986;SDS011;12674;51.500;7.552;2022-10-17T01:25:34;3.65;;;3.35;;
4986;SDS011;12674;51.500;7.552;2022-10-17T01:27:50;7.68;;;3.55;;
4986;SDS011;12674;51.500;7.552;2022-10-17T01:32:30;15.00;;;3.58;;
4986;SDS011;12674;51.500;7.552;2022-10-17T01:34:38;5.75;;;3.30;;
4986;SDS011;12674;51.500;7.552;2022-10-17T01:36:47;4.45;;;3.13;;
4986;SDS011;12674;51.500;7.552;2022-10-17T01:38:53;9.23;;;3.35;;
4986;SDS011;12674;51.500;7.552;2022-10-17T01:41:01;4.57;;;3.67;;
4986;SDS011;12674;51.500;7.552;2022-10-17T01:43:06;13.02;;;3.30;;
4986;SDS011;12674;51.500;7.552;2022-10-17T01:45:14;10.93;;;3.33;;
4986;SDS011;12674;51.500;7.552;2022-10-17T01:47:20;7.47;;;3.45;;
4986;SDS011;12674;51.500;7.552;2022-10-17T01:49:28;4.38;;;3.33;;
4986;SDS011;12674;51.500;7.552;2022-10-17T01:51:35;9.32;;;3.63;;
4986;SDS011;12674;51.500;7.552;2022-10-17T01:53:40;4.40;;;3.10;;
4986;SDS011;12674;51.500;7.552;2022-10-17T01:55:47;4.72;;;3.60;;
4986;SDS011;12674;51.500;7.552;2022-10-17T01:57:53;5.60;;;2.88;;
4986;SDS011;12674;51.500;7.552;2022-10-17T01:59:57;5.65;;;3.83;;
4986;SDS011;12674;51.500;7.552;2022-10-17T02:02:00;8.77;;;2.63;;
4986;SDS011;12674;51.500;7.552;2022-10-17T02:04:03;15.13;;;3.20;;
4986;SDS011;12674;51.500;7.552;2022-10-17T02:06:09;4.70;;;3.28;;
4986;SDS011;12674;51.500;7.552;2022-10-17T02:08:12;11.07;;;3.78;;
4986;SDS011;12674;51.500;7.552;2022-10-17T02:10:17;8.43;;;3.33;;
4986;SDS011;12674;51.500;7.552;2022-10-17T02:12:34;3.90;;;2.85;;
4986;SDS011;12674;51.500;7.552;2022-10-17T02:14:46;5.72;;;2.85;;
4986;SDS011;12674;51.500;7.552;2022-10-17T02:16:58;4.50;;;3.03;;
4986;SDS011;12674;51.500;7.552;2022-10-17T02:23:55;9.57;;;3.03;;
4986;SDS011;12674;51.500;7.552;2022-10-17T02:26:03;7.13;;;3.33;;
4986;SDS011;12674;51.500;7.552;2022-10-17T02:28:12;12.85;;;3.30;;
4986;SDS011;12674;51.500;7.552;2022-10-17T02:30:22;7.38;;;3.00;;
4986;SDS011;12674;51.500;7.552;2022-10-17T02:32:31;6.60;;;3.03;;
4986;SDS011;12674;51.500;7.552;2022-10-17T02:34:37;7.20;;;2.70;;
4986;SDS011;12674;51.500;7.552;2022-10-17T02:36:44;6.20;;;2.97;;
4986;SDS011;12674;51.500;7.552;2022-10-17T02:38:50;5.35;;;2.95;;
4986;SDS011;12674;51.500;7.552;2022-10-17T02:40:54;3.92;;;3.47;;
4986;SDS011;12674;51.500;7.552;2022-10-17T02:42:58;9.15;;;3.13;;
4986;SDS011;12674;51.500;7.552;2022-10-17T02:45:03;6.15;;;2.90;;
4986;SDS011;12674;51.500;7.552;2022-10-17T02:47:11;9.80;;;2.78;;
4986;SDS011;12674;51.500;7.552;2022-10-17T02:49:20;3.28;;;2.97;;
4986;SDS011;12674;51.500;7.552;2022-10-17T02:51:26;7.20;;;3.60;;
4986;SDS011;12674;51.500;7.552;2022-10-17T02:53:32;7.80;;;3.03;;
4986;SDS011;12674;51.500;7.552;2022-10-17T02:55:42;7.72;;;3.15;;
4986;SDS011;12674;51.500;7.552;2022-10-17T02:57:48;6.72;;;2.95;;
4986;SDS011;12674;51.500;7.552;2022-10-17T02:59:53;5.65;;;2.88;;
4986;SDS011;12674;51.500;7.552;2022-10-17T03:01:57;4.45;;;2.97;;
4986;SDS011;12674;51.500;7.552;2022-10-17T03:04:03;3.85;;;2.58;;
4986;SDS011;12674;51.500;7.552;2022-10-17T03:06:07;6.90;;;2.75;;
4986;SDS011;12674;51.500;7.552;2022-10-17T03:08:10;8.00;;;2.92;;
4986;SDS011;12674;51.500;7.552;2022-10-17T03:10:13;7.82;;;2.72;;
4986;SDS011;12674;51.500;7.552;2022-10-17T03:12:18;4.78;;;2.97;;
4986;SDS011;12674;51.500;7.552;2022-10-17T03:14:21;13.70;;;2.97;;
4986;SDS011;12674;51.500;7.552;2022-10-17T03:16:25;4.95;;;2.97;;
4986;SDS011;12674;51.500;7.552;2022-10-17T03:18:29;2.55;;;2.30;;
4986;SDS011;12674;51.500;7.552;2022-10-17T03:20:34;2.70;;;2.47;;
4986;SDS011;12674;51.500;7.552;2022-10-17T03:22:37;12.50;;;3.55;;
4986;SDS011;12674;51.500;7.552;2022-10-17T03:24:40;6.13;;;2.88;;
4986;SDS011;12674;51.500;7.552;2022-10-17T03:26:43;7.30;;;3.60;;
4986;SDS011;12674;51.500;7.552;2022-10-17T03:28:48;9.02;;;2.70;;
4986;SDS011;12674;51.500;7.552;2022-10-17T03:30:55;9.32;;;2.97;;
4986;SDS011;12674;51.500;7.552;2022-10-17T03:32:58;3.20;;;2.30;;
4986;SDS011;12674;51.500;7.552;2022-10-17T03:35:02;9.68;;;3.75;;
4986;SDS011;12674;51.500;7.552;2022-10-17T03:37:05;7.18;;;2.75;;
4986;SDS011;12674;51.500;7.552;2022-10-17T03:39:10;20.52;;;3.55;;
4986;SDS011;12674;51.500;7.552;2022-10-17T03:41:13;4.10;;;2.70;;
4986;SDS011;12674;51.500;7.552;2022-10-17T03:43:16;4.57;;;2.60;;
4986;SDS011;12674;51.500;7.552;2022-10-17T03:45:21;8.38;;;2.60;;
4986;SDS011;12674;51.500;7.552;2022-10-17T03:47:25;4.60;;;2.92;;
4986;SDS011;12674;51.500;7.552;2022-10-17T03:49:29;9.68;;;3.50;;
4986;SDS011;12674;51.500;7.552;2022-10-17T03:51:32;12.10;;;3.05;;
4986;SDS011;12674;51.500;7.552;2022-10-17T03:53:40;15.82;;;2.97;;
4986;SDS011;12674;51.500;7.552;2022-10-17T03:55:43;6.05;;;3.53;;
4986;SDS011;12674;51.500;7.552;2022-10-17T03:57:46;5.95;;;2.97;;
4986;SDS011;12674;51.500;7.552;2022-10-17T03:59:52;8.07;;;2.88;;
4986;SDS011;12674;51.500;7.552;2022-10-17T04:01:57;10.50;;;4.15;;
4986;SDS011;12674;51.500;7.552;2022-10-17T04:04:00;8.02;;;3.05;;
4986;SDS011;12674;51.500;7.552;2022-10-17T04:06:06;10.70;;;2.95;;
4986;SDS011;12674;51.500;7.552;2022-10-17T04:08:10;6.93;;;2.92;;
4986;SDS011;12674;51.500;7.552;2022-10-17T04:10:33;5.28;;;3.05;;
4986;SDS011;12674;51.500;7.552;2022-10-17T04:12:36;4.40;;;2.92;;
4986;SDS011;12674;51.500;7.552;2022-10-17T04:14:39;6.63;;;3.42;;
4986;SDS011;12674;51.500;7.552;2022-10-17T04:16:42;4.07;;;3.00;;
4986;SDS011;12674;51.500;7.552;2022-10-17T04:18:52;6.47;;;2.85;;
4986;SDS011;12674;51.500;7.552;2022-10-17T04:20:59;5.80;;;2.78;;
4986;SDS011;12674;51.500;7.552;2022-10-17T04:23:04;7.60;;;2.95;;
4986;SDS011;12674;51.500;7.552;2022-10-17T04:25:07;7.75;;;3.17;;
4986;SDS011;12674;51.500;7.552;2022-10-17T04:27:13;10.90;;;3.10;;
4986;SDS011;12674;51.500;7.552;2022-10-17T04:29:19;11.65;;;3.28;;
4986;SDS011;12674;51.500;7.552;2022-10-17T04:31:24;14.45;;;3.22;;
4986;SDS011;12674;51.500;7.552;2022-10-17T04:33:50;6.95;;;2.88;;
4986;SDS011;12674;51.500;7.552;2022-10-17T04:35:56;4.97;;;3.35;;
4986;SDS011;12674;51.500;7.552;2022-10-17T04:37:59;6.00;;;2.88;;
4986;SDS011;12674;51.500;7.552;2022-10-17T04:40:03;19.27;;;3.65;;
4986;SDS011;12674;51.500;7.552;2022-10-17T04:42:07;10.20;;;3.35;;
4986;SDS011;12674;51.500;7.552;2022-10-17T04:44:11;5.80;;;2.90;;
4986;SDS011;12674;51.500;7.552;2022-10-17T04:46:20;20.17;;;3.08;;
4986;SDS011;12674;51.500;7.552;2022-10-17T04:48:23;5.65;;;3.17;;
4986;SDS011;12674;51.500;7.552;2022-10-17T04:50:26;5.28;;;3.35;;
4986;SDS011;12674;51.500;7.552;2022-10-17T04:52:56;7.47;;;3.13;;
4986;SDS011;12674;51.500;7.552;2022-10-17T04:54:59;4.13;;;2.92;;
4986;SDS011;12674;51.500;7.552;2022-10-17T04:57:02;11.48;;;3.78;;
4986;SDS011;12674;51.500;7.552;2022-10-17T04:59:05;10.73;;;3.60;;
4986;SDS011;12674;51.500;7.552;2022-10-17T05:01:12;9.40;;;2.88;;
4986;SDS011;12674;51.500;7.552;2022-10-17T05:03:18;6.43;;;2.97;;
4986;SDS011;12674;51.500;7.552;2022-10-17T05:05:21;7.85;;;2.85;;
4986;SDS011;12674;51.500;7.552;2022-10-17T05:07:26;7.93;;;3.28;;
4986;SDS011;12674;51.500;7.552;2022-10-17T05:09:42;11.27;;;2.85;;
4986;SDS011;12674;51.500;7.552;2022-10-17T05:11:45;5.93;;;2.70;;
4986;SDS011;12674;51.500;7.552;2022-10-17T05:13:49;3.78;;;2.50;;
4986;SDS011;12674;51.500;7.552;2022-10-17T05:15:53;9.10;;;3.63;;
4986;SDS011;12674;51.500;7.552;2022-10-17T05:17:56;5.32;;;2.65;;
4986;SDS011;12674;51.500;7.552;2022-10-17T05:20:01;15.45;;;3.30;;
4986;SDS011;12674;51.500;7.552;2022-10-17T05:22:07;10.35;;;3.00;;
4986;SDS011;12674;51.500;7.552;2022-10-17T05:24:12;10.98;;;2.67;;
4986;SDS011;12674;51.500;7.552;2022-10-17T05:26:17;8.05;;;2.75;;
4986;SDS011;12674;51.500;7.552;2022-10-17T05:28:20;4.25;;;2.75;;
4986;SDS011;12674;51.500;7.552;2022-10-17T05:30:25;4.07;;;3.03;;
4986;SDS011;12674;51.500;7.552;2022-10-17T05:32:32;4.32;;;2.67;;
4986;SDS011;12674;51.500;7.552;2022-10-17T05:34:35;9.73;;;2.53;;
4986;SDS011;12674;51.500;7.552;2022-10-17T05:36:39;6.18;;;3.30;;
4986;SDS011;12674;51.500;7.552;2022-10-17T05:38:43;10.60;;;3.00;;
4986;SDS011;12674;51.500;7.552;2022-10-17T05:40:46;18.58;;;3.42;;
4986;SDS011;12674;51.500;7.552;2022-10-17T05:42:50;11.93;;;3.05;;
4986;SDS011;12674;51.500;7.552;2022-10-17T05:44:55;4.60;;;2.78;;
4986;SDS011;12674;51.500;7.552;2022-10-17T05:46:59;11.10;;;3.55;;
4986;SDS011;12674;51.500;7.552;2022-10-17T05:49:02;13.20;;;2.75;;
4986;SDS011;12674;51.500;7.552;2022-10-17T05:51:26;9.85;;;3.20;;
4986;SDS011;12674;51.500;7.552;2022-10-17T05:53:30;6.05;;;2.67;;
4986;SDS011;12674;51.500;7.552;2022-10-17T05:55:38;10.65;;;3.88;;
4986;SDS011;12674;51.500;7.552;2022-10-17T05:57:41;4.05;;;3.10;;
4986;SDS011;12674;51.500;7.552;2022-10-17T05:59:50;5.05;;;2.47;;
4986;SDS011;12674;51.500;7.552;2022-10-17T06:01:54;5.15;;;2.80;;
4986;SDS011;12674;51.500;7.552;2022-10-17T06:03:57;10.60;;;3.40;;
4986;SDS011;12674;51.500;7.552;2022-10-17T06:06:03;12.63;;;2.88;;
4986;SDS011;12674;51.500;7.552;2022-10-17T06:08:07;4.88;;;2.70;;
4986;SDS011;12674;51.500;7.552;2022-10-17T06:10:11;3.58;;;2.75;;
4986;SDS011;12674;51.500;7.552;2022-10-17T06:12:16;6.90;;;2.90;;
4986;SDS011;12674;51.500;7.552;2022-10-17T06:14:20;3.50;;;2.85;;
4986;SDS011;12674;51.500;7.552;2022-10-17T06:16:28;5.47;;;2.60;;
4986;SDS011;12674;51.500;7.552;2022-10-17T06:18:33;9.00;;;2.92;;
4986;SDS011;12674;51.500;7.552;2022-10-17T06:20:36;6.82;;;2.47;;
4986;SDS011;12674;51.500;7.552;2022-10-17T06:22:47;8.45;;;2.85;;
4986;SDS011;12674;51.500;7.552;2022-10-17T06:24:59;5.55;;;3.40;;
4986;SDS011;12674;51.500;7.552;2022-10-17T06:27:03;4.65;;;3.08;;
4986;SDS011;12674;51.500;7.552;2022-10-17T06:29:13;11.30;;;3.53;;
4986;SDS011;12674;51.500;7.552;2022-10-17T06:31:20;8.00;;;3.22;;
4986;SDS011;12674;51.500;7.552;2022-10-17T06:33:25;8.07;;;2.80;;
4986;SDS011;12674;51.500;7.552;2022-10-17T06:35:29;5.60;;;2.25;;
4986;SDS011;12674;51.500;7.552;2022-10-17T06:37:32;5.63;;;2.17;;
4986;SDS011;12674;51.500;7.552;2022-10-17T06:39:41;4.07;;;3.17;;
4986;SDS011;12674;51.500;7.552;2022-10-17T06:41:46;4.28;;;2.55;;
4986;SDS011;12674;51.500;7.552;2022-10-17T06:43:52;13.52;;;2.92;;
4986;SDS011;12674;51.500;7.552;2022-10-17T06:46:14;11.60;;;3.10;;
4986;SDS011;12674;51.500;7.552;2022-10-17T06:48:29;10.65;;;2.78;;
4986;SDS011;12674;51.500;7.552;2022-10-17T06:50:48;7.15;;;2.70;;
4986;SDS011;12674;51.500;7.552;2022-10-17T06:52:54;8.70;;;3.00;;
4986;SDS011;12674;51.500;7.552;2022-10-17T06:55:16;3.63;;;2.80;;
4986;SDS011;12674;51.500;7.552;2022-10-17T06:57:46;7.25;;;2.90;;
4986;SDS011;12674;51.500;7.552;2022-10-17T07:00:11;9.85;;;3.13;;
4986;SDS011;12674;51.500;7.552;2022-10-17T07:02:19;8.18;;;3.30;;
4986;SDS011;12674;51.500;7.552;2022-10-17T07:04:26;16.85;;;3.95;;
4986;SDS011;12674;51.500;7.552;2022-10-17T07:06:29;5.53;;;2.65;;
4986;SDS011;12674;51.500;7.552;2022-10-17T07:08:40;5.90;;;2.53;;
4986;SDS011;12674;51.500;7.552;2022-10-17T07:10:45;7.68;;;2.60;;
4986;SDS011;12674;51.500;7.552;2022-10-17T07:12:48;4.35;;;2.30;;
4986;SDS011;12674;51.500;7.552;2022-10-17T07:14:51;6.88;;;2.53;;
4986;SDS011;12674;51.500;7.552;2022-10-17T07:16:54;10.07;;;2.67;;
4986;SDS011;12674;51.500;7.552;2022-10-17T07:18:58;6.45;;;2.55;;
4986;SDS011;12674;51.500;7.552;2022-10-17T07:21:08;14.02;;;2.50;;
4986;SDS011;12674;51.500;7.552;2022-10-17T07:23:13;7.97;;;2.90;;
4986;SDS011;12674;51.500;7.552;2022-10-17T07:25:16;3.88;;;2.53;;
4986;SDS011;12674;51.500;7.552;2022-10-17T07:27:25;10.07;;;2.65;;
4986;SDS011;12674;51.500;7.552;2022-10-17T07:29:29;3.45;;;3.15;;
4986;SDS011;12674;51.500;7.552;2022-10-17T07:31:41;5.05;;;2.40;;
4986;SDS011;12674;51.500;7.552;2022-10-17T07:33:46;10.25;;;2.90;;
4986;SDS011;12674;51.500;7.552;2022-10-17T07:35:49;4.60;;;2.35;;
4986;SDS011;12674;51.500;7.552;2022-10-17T07:37:54;10.90;;;2.90;;
4986;SDS011;12674;51.500;7.552;2022-10-17T07:39:57;3.78;;;2.50;;
4986;SDS011;12674;51.500;7.552;2022-10-17T07:42:00;6.15;;;2.72;;
4986;SDS011;12674;51.500;7.552;2022-10-17T07:44:03;5.72;;;2.80;;
4986;SDS011;12674;51.500;7.552;2022-10-17T07:46:15;4.90;;;2.80;;
4986;SDS011;12674;51.500;7.552;2022-10-17T07:48:19;7.00;;;2.50;;
4986;SDS011;12674;51.500;7.552;2022-10-17T07:50:22;5.47;;;2.80;;
4986;SDS011;12674;51.500;7.552;2022-10-17T07:52:25;12.93;;;2.83;;
4986;SDS011;12674;51.500;7.552;2022-10-17T07:54:30;10.55;;;2.88;;
4986;SDS011;12674;51.500;7.552;2022-10-17T07:56:33;10.40;;;2.92;;
4986;SDS011;12674;51.500;7.552;2022-10-17T07:58:36;6.93;;;2.13;;
4986;SDS011;12674;51.500;7.552;2022-10-17T08:00:40;8.15;;;2.83;;
4986;SDS011;12674;51.500;7.552;2022-10-17T08:02:43;9.43;;;2.65;;
4986;SDS011;12674;51.500;7.552;2022-10-17T08:04:46;9.80;;;2.85;;
4986;SDS011;12674;51.500;7.552;2022-10-17T08:06:49;11.93;;;2.72;;
4986;SDS011;12674;51.500;7.552;2022-10-17T08:09:00;8.88;;;2.75;;
4986;SDS011;12674;51.500;7.552;2022-10-17T08:11:06;10.45;;;3.15;;
4986;SDS011;12674;51.500;7.552;2022-10-17T08:13:10;8.77;;;2.45;;
4986;SDS011;12674;51.500;7.552;2022-10-17T08:15:13;13.35;;;3.00;;
4986;SDS011;12674;51.500;7.552;2022-10-17T08:17:16;6.80;;;2.75;;
4986;SDS011;12674;51.500;7.552;2022-10-17T08:19:19;6.97;;;2.55;;
4986;SDS011;12674;51.500;7.552;2022-10-17T08:21:22;10.70;;;3.10;;
4986;SDS011;12674;51.500;7.552;2022-10-17T08:23:26;5.45;;;2.47;;
4986;SDS011;12674;51.500;7.552;2022-10-17T08:25:29;21.42;;;3.33;;
4986;SDS011;12674;51.500;7.552;2022-10-17T08:27:33;4.07;;;2.78;;
4986;SDS011;12674;51.500;7.552;2022-10-17T08:29:36;9.05;;;2.88;;
4986;SDS011;12674;51.500;7.552;2022-10-17T08:31:39;4.05;;;2.50;;
4986;SDS011;12674;51.500;7.552;2022-10-17T08:33:48;4.88;;;2.40;;
4986;SDS011;12674;51.500;7.552;2022-10-17T08:35:51;10.20;;;2.55;;
4986;SDS011;12674;51.500;7.552;2022-10-17T08:37:56;5.57;;;2.50;;
4986;SDS011;12674;51.500;7.552;2022-10-17T08:40:02;13.05;;;2.95;;
4986;SDS011;12674;51.500;7.552;2022-10-17T08:42:10;4.05;;;2.28;;
4986;SDS011;12674;51.500;7.552;2022-10-17T08:44:34;11.43;;;2.58;;
4986;SDS011;12674;51.500;7.552;2022-10-17T08:46:43;9.32;;;3.05;;
4986;SDS011;12674;51.500;7.552;2022-10-17T08:48:48;5.47;;;2.08;;
4986;SDS011;12674;51.500;7.552;2022-10-17T08:50:54;13.98;;;2.55;;
4986;SDS011;12674;51.500;7.552;2022-10-17T08:53:01;8.57;;;2.67;;
4986;SDS011;12674;51.500;7.552;2022-10-17T08:55:08;5.85;;;2.67;;
4986;SDS011;12674;51.500;7.552;2022-10-17T08:57:16;13.18;;;2.83;;
4986;SDS011;12674;51.500;7.552;2022-10-17T08:59:20;7.43;;;2.13;;
4986;SDS011;12674;51.500;7.552;2022-10-17T09:01:31;9.60;;;2.65;;
4986;SDS011;12674;51.500;7.552;2022-10-17T09:03:41;14.25;;;2.80;;
4986;SDS011;12674;51.500;7.552;2022-10-17T09:05:49;5.30;;;2.60;;
4986;SDS011;12674;51.500;7.552;2022-10-17T09:07:58;7.30;;;2.55;;
4986;SDS011;12674;51.500;7.552;2022-10-17T09:10:07;3.70;;;2.17;;
4986;SDS011;12674;51.500;7.552;2022-10-17T09:12:16;5.13;;;2.00;;
4986;SDS011;12674;51.500;7.552;2022-10-17T09:14:28;9.82;;;3.17;;
4986;SDS011;12674;51.500;7.552;2022-10-17T09:16:42;4.00;;;2.50;;
4986;SDS011;12674;51.500;7.552;2022-10-17T09:18:58;5.47;;;2.35;;
4986;SDS011;12674;51.500;7.552;2022-10-17T09:21:07;10.35;;;2.55;;
4986;SDS011;12674;51.500;7.552;2022-10-17T09:23:16;6.95;;;2.67;;
4986;SDS011;12674;51.500;7.552;2022-10-17T09:25:21;2.92;;;2.00;;
4986;SDS011;12674;51.500;7.552;2022-10-17T09:27:25;6.88;;;2.30;;
4986;SDS011;12674;51.500;7.552;2022-10-17T09:29:32;14.45;;;2.20;;
4986;SDS011;12674;51.500;7.552;2022-10-17T09:31:44;9.20;;;2.72;;
4986;SDS011;12674;51.500;7.552;2022-10-17T09:33:50;10.40;;;2.85;;
4986;SDS011;12674;51.500;7.552;2022-10-17T09:35:55;5.90;;;2.45;;
4986;SDS011;12674;51.500;7.552;2022-10-17T09:38:00;5.32;;;2.20;;
4986;SDS011;12674;51.500;7.552;2022-10-17T09:40:03;5.32;;;2.03;;
4986;SDS011;12674;51.500;7.552;2022-10-17T09:42:09;7.82;;;3.25;;
4986;SDS011;12674;51.500;7.552;2022-10-17T09:44:16;20.25;;;2.95;;
4986;SDS011;12674;51.500;7.552;2022-10-17T09:46:21;17.30;;;2.97;;
4986;SDS011;12674;51.500;7.552;2022-10-17T09:48:29;7.80;;;2.88;;
4986;SDS011;12674;51.500;7.552;2022-10-17T09:50:35;10.23;;;2.40;;
4986;SDS011;12674;51.500;7.552;2022-10-17T09:52:38;7.20;;;2.47;;
4986;SDS011;12674;51.500;7.552;2022-10-17T09:54:43;9.30;;;2.03;;
4986;SDS011;12674;51.500;7.552;2022-10-17T09:56:57;8.07;;;2.40;;
4986;SDS011;12674;51.500;7.552;2022-10-17T09:59:02;7.10;;;1.90;;
4986;SDS011;12674;51.500;7.552;2022-10-17T10:01:13;7.20;;;2.67;;
4986;SDS011;12674;51.500;7.552;2022-10-17T10:03:24;7.00;;;2.28;;
4986;SDS011;12674;51.500;7.552;2022-10-17T10:05:30;8.38;;;2.33;;
4986;SDS011;12674;51.500;7.552;2022-10-17T10:07:34;14.55;;;2.92;;
4986;SDS011;12674;51.500;7.552;2022-10-17T10:09:38;7.55;;;2.13;;
4986;SDS011;12674;51.500;7.552;2022-10-17T10:11:45;9.40;;;2.35;;
4986;SDS011;12674;51.500;7.552;2022-10-17T10:13:50;10.10;;;2.40;;
4986;SDS011;12674;51.500;7.552;2022-10-17T10:15:53;8.95;;;3.00;;
4986;SDS011;12674;51.500;7.552;2022-10-17T10:18:28;12.35;;;2.17;;
4986;SDS011;12674;51.500;7.552;2022-10-17T10:20:36;6.43;;;2.50;;
4986;SDS011;12674;51.500;7.552;2022-10-17T10:22:39;4.97;;;2.15;;
4986;SDS011;12674;51.500;7.552;2022-10-17T10:24:42;6.95;;;2.30;;
4986;SDS011;12674;51.500;7.552;2022-10-17T10:26:45;7.68;;;2.63;;
4986;SDS011;12674;51.500;7.552;2022-10-17T10:28:53;18.10;;;2.70;;
4986;SDS011;12674;51.500;7.552;2022-10-17T10:30:59;13.07;;;4.25;;
4986;SDS011;12674;51.500;7.552;2022-10-17T10:33:09;6.15;;;2.70;;
4986;SDS011;12674;51.500;7.552;2022-10-17T10:35:18;13.02;;;2.63;;
4986;SDS011;12674;51.500;7.552;2022-10-17T10:37:25;7.93;;;2.65;;
4986;SDS011;12674;51.500;7.552;2022-10-17T10:39:35;7.22;;;2.97;;
4986;SDS011;12674;51.500;7.552;2022-10-17T10:41:46;6.55;;;2.40;;
4986;SDS011;12674;51.500;7.552;2022-10-17T10:43:50;8.43;;;2.70;;
4986;SDS011;12674;51.500;7.552;2022-10-17T10:45:53;5.53;;;2.47;;
4986;SDS011;12674;51.500;7.552;2022-10-17T10:47:56;7.25;;;2.35;;
4986;SDS011;12674;51.500;7.552;2022-10-17T10:50:07;8.85;;;2.72;;
4986;SDS011;12674;51.500;7.552;2022-10-17T10:52:30;10.00;;;2.67;;
4986;SDS011;12674;51.500;7.552;2022-10-17T10:54:38;7.70;;;2.85;;
4986;SDS011;12674;51.500;7.552;2022-10-17T10:56:43;12.27;;;2.50;;
4986;SDS011;12674;51.500;7.552;2022-10-17T10:58:53;8.60;;;2.45;;
4986;SDS011;12674;51.500;7.552;2022-10-17T11:01:05;10.95;;;3.25;;
4986;SDS011;12674;51.500;7.552;2022-10-17T11:03:14;9.57;;;2.50;;
4986;SDS011;12674;51.500;7.552;2022-10-17T11:05:24;7.55;;;2.75;;
4986;SDS011;12674;51.500;7.552;2022-10-17T11:07:41;7.70;;;2.17;;
4986;SDS011;12674;51.500;7.552;2022-10-17T11:09:47;14.20;;;2.10;;
4986;SDS011;12674;51.500;7.552;2022-10-17T11:11:57;8.68;;;2.58;;
4986;SDS011;12674;51.500;7.552;2022-10-17T11:14:04;5.28;;;2.22;;
4986;SDS011;12674;51.500;7.552;2022-10-17T11:16:20;11.88;;;2.42;;
4986;SDS011;12674;51.500;7.552;2022-10-17T11:18:34;11.85;;;2.50;;
4986;SDS011;12674;51.500;7.552;2022-10-17T11:20:46;3.63;;;2.47;;
4986;SDS011;12674;51.500;7.552;2022-10-17T11:22:55;6.85;;;2.88;;
4986;SDS011;12674;51.500;7.552;2022-10-17T11:25:03;4.30;;;2.30;;
4986;SDS011;12674;51.500;7.552;2022-10-17T11:27:08;9.60;;;3.03;;
4986;SDS011;12674;51.500;7.552;2022-10-17T11:29:12;7.25;;;2.20;;
4986;SDS011;12674;51.500;7.552;2022-10-17T11:31:18;6.15;;;2.20;;
4986;SDS011;12674;51.500;7.552;2022-10-17T11:33:25;11.80;;;3.15;;
4986;SDS011;12674;51.500;7.552;2022-10-17T11:35:31;8.65;;;2.42;;
4986;SDS011;12674;51.500;7.552;2022-10-17T11:37:38;5.95;;;2.88;;
4986;SDS011;12674;51.500;7.552;2022-10-17T11:39:50;14.50;;;2.70;;
4986;SDS011;12674;51.500;7.552;2022-10-17T11:41:55;10.02;;;2.35;;
4986;SDS011;12674;51.500;7.552;2022-10-17T11:44:07;13.25;;;3.22;;
4986;SDS011;12674;51.500;7.552;2022-10-17T11:46:15;16.60;;;2.97;;
4986;SDS011;12674;51.500;7.552;2022-10-17T11:48:24;6.22;;;2.58;;
4986;SDS011;12674;51.500;7.552;2022-10-17T11:50:31;8.70;;;2.55;;
4986;SDS011;12674;51.500;7.552;2022-10-17T11:52:57;3.38;;;2.20;;
4986;SDS011;12674;51.500;7.552;2022-10-17T11:55:04;10.95;;;2.72;;
4986;SDS011;12674;51.500;7.552;2022-10-17T11:57:20;9.25;;;2.95;;
4986;SDS011;12674;51.500;7.552;2022-10-17T11:59:38;4.97;;;2.30;;
4986;SDS011;12674;51.500;7.552;2022-10-17T12:01:59;11.27;;;3.20;;
4986;SDS011;12674;51.500;7.552;2022-10-17T12:04:14;19.45;;;3.33;;
4986;SDS011;12674;51.500;7.552;2022-10-17T12:06:23;10.40;;;2.67;;
4986;SDS011;12674;51.500;7.552;2022-10-17T12:08:35;6.95;;;2.20;;
4986;SDS011;12674;51.500;7.552;2022-10-17T12:10:46;9.55;;;2.80;;
4986;SDS011;12674;51.500;7.552;2022-10-17T12:12:53;11.23;;;2.60;;
4986;SDS011;12674;51.500;7.552;2022-10-17T12:15:25;34.67;;;3.42;;
4986;SDS011;12674;51.500;7.552;2022-10-17T12:17:30;6.70;;;2.80;;
4986;SDS011;12674;51.500;7.552;2022-10-17T12:19:37;7.80;;;2.65;;
4986;SDS011;12674;51.500;7.552;2022-10-17T12:21:52;10.32;;;2.88;;
4986;SDS011;12674;51.500;7.552;2022-10-17T12:23:56;10.32;;;2.70;;
4986;SDS011;12674;51.500;7.552;2022-10-17T12:26:16;13.85;;;2.67;;
4986;SDS011;12674;51.500;7.552;2022-10-17T12:28:27;5.72;;;2.35;;
4986;SDS011;12674;51.500;7.552;2022-10-17T12:30:32;5.80;;;2.97;;
4986;SDS011;12674;51.500;7.552;2022-10-17T12:32:35;8.13;;;2.80;;
4986;SDS011;12674;51.500;7.552;2022-10-17T12:34:58;6.60;;;2.70;;
4986;SDS011;12674;51.500;7.552;2022-10-17T12:37:02;5.43;;;2.55;;
4986;SDS011;12674;51.500;7.552;2022-10-17T12:41:53;14.07;;;4.07;;
4986;SDS011;12674;51.500;7.552;2022-10-17T12:43:56;3.28;;;2.40;;
4986;SDS011;12674;51.500;7.552;2022-10-17T12:45:59;5.10;;;2.85;;
4986;SDS011;12674;51.500;7.552;2022-10-17T12:48:03;11.05;;;2.90;;
4986;SDS011;12674;51.500;7.552;2022-10-17T12:52:54;13.60;;;3.00;;
4986;SDS011;12674;51.500;7.552;2022-10-17T12:55:10;9.90;;;2.70;;
4986;SDS011;12674;51.500;7.552;2022-10-17T12:57:19;11.65;;;2.75;;
4986;SDS011;12674;51.500;7.552;2022-10-17T12:59:23;14.98;;;3.15;;
4986;SDS011;12674;51.500;7.552;2022-10-17T13:01:28;7.75;;;2.50;;
4986;SDS011;12674;51.500;7.552;2022-10-17T13:03:34;8.98;;;3.55;;
4986;SDS011;12674;51.500;7.552;2022-10-17T13:05:44;10.00;;;2.95;;
4986;SDS011;12674;51.500;7.552;2022-10-17T13:07:50;8.98;;;3.50;;